Time;durP1;ratioP1;P1;durP2;ratioP2;P2;SDS_P1;SDS_P2;PMS_P1;PMS_P2;Temp;Humidity;BMP_temperature;BMP_pressure;BME280_temperature;BME280_humidity;BME280_pressure;Samples;Min_cycle;Max_cycle;Signal;HPM_P1;HPM_P2
2023/07/28 00:05:54;;;;;;;;;;;;;;;;;;;;;
2023/07/28 00:17:21;;;;;;;;;;;;;;;;;;;;;
2023/07/28 00:41:20;;;;;;;691.63;629.60;;;17.40;88.00;;;;;;6195550;22;20020;-90
2023/07/28 00:44:17;;;;;;;;;;;;;;;;;;;;;
2023/07/28 00:50:15;;;;;;;;;;;17.30;87.90;;;;;;6047581;23;21013;-90
2023/07/28 01:04:05;;;;;;;;;;;;;;;;;;;;;
2023/07/28 01:41:00;;;;;;;;;;;;;;;;;;;;;
2023/07/28 01:44:23;;;;;;;;;;;;;;;;;;;;;
2023/07/28 01:47:51;;;;;;;;;;;;;;;;;;;;;
2023/07/28 01:51:18;;;;;;;704.63;641.67;;;17.30;88.00;;;;;;6141860;23;20032;-91
2023/07/28 02:08:50;;;;;;;;;;;17.30;88.10;;;;;;5295459;22;28660950;-90
2023/07/28 02:33:58;;;;;;;655.92;600.03;;;17.30;88.10;;;;;;5587840;22;15099909;-91
2023/07/28 02:37:28;;;;;;;;;;;;;;;;;;;;;
2023/07/28 02:40:43;;;;;;;;;;;;;;;;;;;;;
2023/07/28 02:43:53;;;;;;;;;;;;;;;;;;;;;
2023/07/28 03:25:29;;;;;;;919.97;762.08;;;17.40;87.90;;;;;;5609220;22;15099244;-93
2023/07/28 03:28:32;;;;;;;789.45;706.20;;;17.30;88.00;;;;;;6152052;23;20016;-93
2023/07/28 03:31:39;;;;;;;785.85;703.65;;;17.30;88.00;;;;;;6188561;23;20498;-94
2023/07/28 03:34:57;;;;;;;740.15;668.83;;;17.30;88.00;;;;;;6193116;23;20025;-94
2023/07/28 03:37:44;;;;;;;740.97;667.97;;;17.30;88.00;;;;;;6188203;23;20066;-93
2023/07/28 03:40:28;;;;;;;751.85;674.80;;;17.20;88.00;;;;;;6153929;23;20012;-93
2023/07/28 03:42:57;;;;;;;760.75;681.22;;;17.30;88.00;;;;;;6158091;23;20074;-92
2023/07/28 03:52:19;;;;;;;650.83;597.60;;;17.30;88.00;;;;;;6096722;23;20018;-92
2023/07/28 03:54:45;;;;;;;;;;;17.30;88.00;;;;;;6127825;23;20071;-92
2023/07/28 03:57:46;;;;;;;648.47;593.13;;;17.30;88.00;;;;;;6115679;23;20390;-93
2023/07/28 04:01:29;;;;;;;;;;;;;;;;;;;;;
2023/07/28 04:03:52;;;;;;;709.05;645.80;;;17.30;88.00;;;;;;6104288;23;20017;-93
2023/07/28 04:07:20;;;;;;;736.60;663.72;;;17.20;88.00;;;;;;6158684;23;20698;-92
2023/07/28 04:10:09;;;;;;;679.72;617.85;;;17.20;88.00;;;;;;6135137;23;20551;-91
2023/07/28 04:12:43;;;;;;;768.28;689.05;;;17.30;88.00;;;;;;6158682;23;20024;-91
2023/07/28 04:15:32;;;;;;;771.95;689.72;;;17.30;88.00;;;;;;6172594;23;20024;-91
2023/07/28 04:18:17;;;;;;;;;;;;;;;;;;;;;
2023/07/28 04:21:29;;;;;;;;;;;;;;;;;;;;;
2023/07/28 04:24:29;;;;;;;;;;;;;;;;;;;;;
2023/07/28 04:26:58;;;;;;;715.35;647.78;;;17.30;88.00;;;;;;6133844;23;20027;-90
2023/07/28 04:29:34;;;;;;;754.80;679.05;;;17.30;88.00;;;;;;6152457;22;20026;-94
2023/07/28 04:38:40;;;;;;;700.92;636.13;;;17.30;87.80;;;;;;6202375;22;20022;-93
2023/07/28 04:44:14;;;;;;;728.03;659.67;;;17.40;87.80;;;;;;6209661;22;20027;-91
2023/07/28 04:47:48;;;;;;;;;;;;;;;;;;;;;
2023/07/28 04:50:44;;;;;;;709.50;644.65;;;17.40;87.70;;;;;;6218425;22;20028;-92
2023/07/28 04:53:39;;;;;;;729.50;660.53;;;17.30;87.60;;;;;;6155494;23;20477;-91
2023/07/28 04:56:49;;;;;;;723.85;656.33;;;17.30;87.60;;;;;;6155920;23;20031;-89
2023/07/28 04:59:38;;;;;;;723.15;656.85;;;17.40;87.60;;;;;;6152874;23;20032;-91
2023/07/28 05:02:17;;;;;;;771.20;695.85;;;17.40;87.60;;;;;;6143041;23;20028;-91
2023/07/28 05:05:30;;;;;;;750.47;680.60;;;17.30;87.60;;;;;;6120103;23;20108;-89
2023/07/28 05:08:36;;;;;;;;;;;;;;;;;;;;;
2023/07/28 05:11:13;;;;;;;725.33;658.38;;;17.30;87.50;;;;;;6237027;22;20023;-90
2023/07/28 05:14:08;;;;;;;727.60;659.67;;;17.30;87.40;;;;;;6216007;22;20081;-92
2023/07/28 05:16:46;;;;;;;;;;;;;;;;;;;;;
2023/07/28 05:19:27;;;;;;;749.17;676.72;;;17.30;87.60;;;;;;6217512;22;20357;-91
2023/07/28 05:25:34;;;;;;;;;;;17.40;87.60;;;;;;6055963;23;20629;-91
2023/07/28 05:28:18;;;;;;;;;;;;;;;;;;;;;
2023/07/28 05:34:49;;;;;;;687.92;626.33;;;17.40;87.60;;;;;;6110926;23;20100;-90
2023/07/28 05:37:15;;;;;;;728.45;660.70;;;17.40;87.50;;;;;;6185594;23;20012;-90
2023/07/28 05:39:44;;;;;;;713.38;653.08;;;17.40;87.60;;;;;;6191329;23;20023;-90
2023/07/28 05:42:35;;;;;;;789.33;710.60;;;17.40;87.50;;;;;;6173981;23;20439;-90
2023/07/28 05:45:45;;;;;;;747.22;676.38;;;17.40;87.40;;;;;;6179016;23;20028;-91
2023/07/28 05:48:36;;;;;;;718.08;651.75;;;17.40;87.50;;;;;;6166294;23;20051;-91
2023/07/28 05:51:28;;;;;;;716.15;654.92;;;17.40;87.30;;;;;;6168386;23;20016;-90
2023/07/28 05:54:15;;;;;;;680.83;624.40;;;17.40;87.20;;;;;;6175172;23;20070;-90
2023/07/28 05:57:04;;;;;;;692.88;631.10;;;17.50;87.20;;;;;;6186237;23;20102;-91
2023/07/28 05:59:53;;;;;;;713.90;649.03;;;17.40;87.20;;;;;;6132389;23;20054;-91
2023/07/28 06:02:19;;;;;;;714.13;647.65;;;17.40;87.20;;;;;;6212815;23;20047;-91
2023/07/28 06:05:48;;;;;;;735.95;668.35;;;17.50;87.10;;;;;;6194013;23;20080;-93
2023/07/28 06:09:25;;;;;;;;;;;;;;;;;;;;;
2023/07/28 06:12:43;;;;;;;;;;;;;;;;;;;;;
2023/07/28 06:21:26;;;;;;;673.80;620.13;;;17.50;86.90;;;;;;6042827;23;20106;-92
2023/07/28 06:24:11;;;;;;;734.85;667.90;;;17.50;86.90;;;;;;6022628;23;20029;-92
2023/07/28 06:26:40;;;;;;;701.50;638.47;;;17.50;86.30;;;;;;6146577;23;20028;-93
2023/07/28 06:29:17;;;;;;;703.85;641.17;;;17.50;86.60;;;;;;6166489;23;20051;-89
2023/07/28 06:32:23;;;;;;;720.78;654.00;;;17.50;86.30;;;;;;6209031;22;20023;-93
2023/07/28 06:34:52;;;;;;;704.97;641.72;;;17.50;86.50;;;;;;6204974;22;20055;-93
2023/07/28 06:37:46;;;;;;;714.92;650.63;;;17.50;86.30;;;;;;6242314;22;20016;-93
2023/07/28 06:40:23;;;;;;;789.97;714.47;;;17.50;86.20;;;;;;6221762;22;20019;-91
2023/07/28 06:43:49;;;;;;;;;;;;;;;;;;;;;
2023/07/28 06:46:10;;;;;;;700.80;637.20;;;17.50;86.10;;;;;;6139148;23;20025;-91
2023/07/28 06:48:36;;;;;;;665.85;609.95;;;17.50;86.00;;;;;;6197172;22;20019;-92
2023/07/28 06:51:21;;;;;;;717.25;652.28;;;17.50;86.30;;;;;;6251271;22;20019;-92
2023/07/28 06:57:42;;;;;;;692.50;630.80;;;17.50;86.00;;;;;;6141484;23;20076;-91
2023/07/28 07:00:12;;;;;;;652.13;599.40;;;17.50;86.10;;;;;;6154193;23;20020;-90
2023/07/28 07:02:38;;;;;;;728.92;662.70;;;17.60;86.20;;;;;;6202632;22;20011;-91
2023/07/28 07:05:04;;;;;;;775.22;701.53;;;17.80;86.50;;;;;;6207986;22;20027;-90
2023/07/28 07:07:32;;;;;;;778.38;699.20;;;17.80;86.00;;;;;;6174866;23;20028;-90
2023/07/28 07:09:58;;;;;;;801.28;723.90;;;17.80;85.80;;;;;;6183742;22;20081;-90
2023/07/28 07:12:26;;;;;;;779.45;699.35;;;17.90;85.80;;;;;;6208416;22;20018;-91
2023/07/28 07:14:54;;;;;;;801.70;719.38;;;17.90;85.70;;;;;;6168449;22;20055;-90
2023/07/28 07:17:20;;;;;;;726.60;663.72;;;18.00;85.60;;;;;;6196725;22;20045;-90
2023/07/28 07:19:48;;;;;;;757.28;690.70;;;18.00;85.20;;;;;;6204625;22;20016;-90
2023/07/28 07:22:17;;;;;;;811.95;733.78;;;18.00;84.60;;;;;;6177414;22;20051;-90
2023/07/28 07:24:46;;;;;;;796.30;715.08;;;18.00;84.40;;;;;;6202588;22;20025;-90
2023/07/28 07:27:14;;;;;;;826.95;741.10;;;18.00;84.30;;;;;;6198314;22;20123;-89
2023/07/28 07:29:42;;;;;;;768.60;696.17;;;18.00;84.40;;;;;;6179415;22;20024;-90
2023/07/28 07:32:09;;;;;;;831.10;744.83;;;18.00;84.10;;;;;;6226963;22;20077;-90
2023/07/28 07:34:38;;;;;;;772.53;702.15;;;18.00;84.00;;;;;;6179694;22;20015;-89
2023/07/28 07:37:04;;;;;;;752.47;682.25;;;18.10;83.80;;;;;;6198101;22;20022;-89
2023/07/28 07:39:34;;;;;;;724.60;646.25;;;18.10;83.50;;;;;;6203099;22;20711;-90
2023/07/28 07:42:00;;;;;;;764.00;694.15;;;18.10;83.80;;;;;;6204078;22;20020;-89
2023/07/28 07:44:52;;;;;;;807.17;723.28;;;18.20;83.90;;;;;;6227357;22;20066;-92
2023/07/28 07:47:27;;;;;;;774.45;697.70;;;18.20;83.80;;;;;;6204462;22;20020;-91
2023/07/28 07:50:00;;;;;;;808.03;723.88;;;18.20;84.00;;;;;;6160512;22;20098;-93
2023/07/28 07:52:28;;;;;;;808.70;726.15;;;18.20;83.70;;;;;;6202635;22;20016;-90
2023/07/28 07:54:54;;;;;;;793.08;714.95;;;18.20;83.80;;;;;;6230065;22;20016;-91
2023/07/28 07:57:20;;;;;;;836.90;749.78;;;18.30;83.40;;;;;;6179241;22;20051;-88
2023/07/28 07:59:46;;;;;;;791.30;711.35;;;18.30;83.40;;;;;;6182801;22;20019;-89
2023/07/28 08:02:14;;;;;;;850.78;761.85;;;18.30;83.10;;;;;;6204909;22;20483;-90
2023/07/28 08:04:43;;;;;;;795.97;714.83;;;18.30;83.00;;;;;;6205756;22;20038;-92
2023/07/28 08:07:09;;;;;;;781.83;703.38;;;18.30;83.10;;;;;;6197763;22;20019;-90
2023/07/28 08:09:37;;;;;;;874.75;781.85;;;18.30;82.90;;;;;;6203373;22;20025;-92
2023/07/28 08:12:07;;;;;;;718.25;653.60;;;18.30;82.80;;;;;;6198242;22;20020;-90
2023/07/28 08:14:35;;;;;;;799.85;720.08;;;18.40;83.10;;;;;;6154715;22;20030;-89
2023/07/28 08:17:01;;;;;;;823.33;739.38;;;18.40;83.00;;;;;;6200553;22;20022;-89
2023/07/28 08:19:30;;;;;;;806.80;724.72;;;18.40;82.90;;;;;;6229151;22;20034;-89
2023/07/28 08:21:58;;;;;;;820.97;737.47;;;18.40;83.00;;;;;;6205276;22;20026;-89
2023/07/28 08:24:24;;;;;;;686.78;629.33;;;18.40;83.30;;;;;;6204161;22;20051;-89
2023/07/28 08:26:53;;;;;;;842.50;753.40;;;18.40;83.30;;;;;;6200675;22;20055;-89
2023/07/28 08:29:25;;;;;;;830.13;742.83;;;18.50;83.40;;;;;;6204110;22;20022;-91
2023/07/28 08:31:51;;;;;;;884.30;729.53;;;18.50;83.00;;;;;;6206396;22;20020;-89
2023/07/28 08:34:19;;;;;;;727.83;664.30;;;18.60;82.60;;;;;;6204317;22;20347;-90
2023/07/28 08:36:45;;;;;;;732.08;668.10;;;18.60;82.70;;;;;;6199917;22;20012;-89
2023/07/28 08:39:14;;;;;;;857.58;766.80;;;18.60;82.70;;;;;;6203649;22;20096;-89
2023/07/28 08:41:41;;;;;;;836.60;748.58;;;18.70;82.90;;;;;;6198529;22;20020;-88
2023/07/28 08:44:22;;;;;;;861.70;771.90;;;18.70;82.20;;;;;;6202949;22;20066;-90
2023/07/28 08:46:48;;;;;;;796.50;713.60;;;18.80;81.30;;;;;;6200696;22;20047;-91
2023/07/28 08:49:14;;;;;;;829.42;745.08;;;18.80;81.50;;;;;;6136220;22;20047;-89
2023/07/28 08:52:16;;;;;;;;;;;;;;;;;;;;;
2023/07/28 08:54:45;;;;;;;681.15;621.47;;;18.90;82.00;;;;;;6227383;22;20031;-89
2023/07/28 08:57:11;;;;;;;803.58;725.67;;;18.90;81.20;;;;;;6198753;22;20023;-90
2023/07/28 08:59:41;;;;;;;837.25;753.25;;;18.90;81.30;;;;;;6203456;22;20022;-89
2023/07/28 09:02:09;;;;;;;805.50;725.42;;;18.90;81.60;;;;;;6164700;22;20113;-89
2023/07/28 09:04:38;;;;;;;830.60;746.75;;;19.00;81.40;;;;;;6180018;22;20020;-91
2023/07/28 09:07:13;;;;;;;669.67;610.90;;;19.00;81.20;;;;;;6193181;22;20350;-90
2023/07/28 09:09:42;;;;;;;789.65;713.03;;;19.00;80.50;;;;;;6205628;22;20020;-89
2023/07/28 09:12:08;;;;;;;817.08;734.97;;;19.00;81.00;;;;;;6211918;22;20023;-89
2023/07/28 09:14:38;;;;;;;721.72;655.55;;;19.00;80.60;;;;;;6154824;22;20659;-89
2023/07/28 09:17:12;;;;;;;676.03;618.13;;;19.00;80.60;;;;;;6199029;22;20023;-88
2023/07/28 09:19:55;;;;;;;802.92;722.95;;;19.00;80.70;;;;;;6204788;22;20123;-91
2023/07/28 09:22:32;;;;;;;826.13;741.35;;;19.10;79.60;;;;;;6203841;22;20066;-93
2023/07/28 09:25:14;;;;;;;854.58;765.55;;;19.20;80.00;;;;;;6206679;22;20081;-91
2023/07/28 09:27:41;;;;;;;622.63;570.75;;;19.20;80.00;;;;;;6223541;22;20012;-91
2023/07/28 09:30:07;;;;;;;861.53;772.20;;;19.20;80.50;;;;;;6202798;22;20023;-89
2023/07/28 09:32:37;;;;;;;881.38;787.53;;;19.30;80.50;;;;;;6188009;22;20044;-90
2023/07/28 09:35:14;;;;;;;845.13;756.83;;;19.30;80.00;;;;;;6203089;22;20730;-89
2023/07/28 09:37:49;;;;;;;655.88;602.10;;;19.30;80.00;;;;;;6197784;22;20047;-90
2023/07/28 09:40:22;;;;;;;694.10;632.75;;;19.40;80.20;;;;;;6203554;22;20054;-91
2023/07/28 09:42:49;;;;;;;827.15;741.53;;;19.40;79.50;;;;;;6202406;22;20029;-89
2023/07/28 09:45:20;;;;;;;808.95;724.15;;;19.50;80.10;;;;;;6205031;22;20019;-91
2023/07/28 09:48:06;;;;;;;845.38;756.28;;;19.60;79.30;;;;;;6223527;22;20019;-93
2023/07/28 09:50:38;;;;;;;597.10;547.38;;;19.70;77.40;;;;;;6205585;22;20036;-91
2023/07/28 09:53:10;;;;;;;683.58;622.65;;;19.70;78.60;;;;;;6206304;22;20079;-89
2023/07/28 09:55:49;;;;;;;985.15;829.40;;;19.80;78.80;;;;;;6206908;22;20016;-89
2023/07/28 09:58:17;;;;;;;885.45;790.67;;;19.90;78.20;;;;;;6183854;22;20019;-89
2023/07/28 10:00:44;;;;;;;1001.90;844.47;;;19.90;78.50;;;;;;6190586;22;20777;-90
2023/07/28 10:03:14;;;;;;;1044.15;861.85;;;20.00;78.40;;;;;;6179218;22;20031;-91
2023/07/28 10:05:44;;;;;;;667.13;609.10;;;20.00;77.90;;;;;;6171327;22;20023;-89
2023/07/28 10:08:12;;;;;;;990.22;833.13;;;20.10;78.20;;;;;;6177430;22;20473;-89
2023/07/28 10:10:39;;;;;;;1068.60;865.70;;;20.20;78.50;;;;;;6221530;22;20073;-89
2023/07/28 10:13:05;;;;;;;1004.17;836.88;;;20.30;78.40;;;;;;6194725;22;20084;-88
2023/07/28 10:15:32;;;;;;;1192.63;917.80;;;20.30;78.70;;;;;;6218499;22;20446;-88
2023/07/28 10:17:59;;;;;;;847.92;759.25;;;20.40;78.70;;;;;;6213668;22;20043;-91
2023/07/28 10:20:29;;;;;;;1148.20;914.30;;;20.30;78.20;;;;;;6194197;22;20019;-89
2023/07/28 10:23:19;;;;;;;1079.57;879.97;;;20.30;77.80;;;;;;6218385;22;20367;-91
2023/07/28 10:25:46;;;;;;;719.53;646.00;;;20.30;78.00;;;;;;6192773;22;20032;-90
2023/07/28 10:28:56;;;;;;;766.15;684.80;;;20.30;78.60;;;;;;6197731;22;20024;-90
2023/07/28 10:31:30;;;;;;;1100.93;904.38;;;20.50;77.70;;;;;;6082673;23;20040;-89
2023/07/28 10:33:56;;;;;;;1075.88;881.75;;;20.50;78.00;;;;;;6174137;22;20035;-90
2023/07/28 10:36:22;;;;;;;1150.13;894.10;;;20.50;78.20;;;;;;6192785;22;20233;-89
2023/07/28 10:39:07;;;;;;;1137.82;918.33;;;20.50;78.20;;;;;;6242304;22;20020;-89
2023/07/28 10:41:36;;;;;;;1021.70;841.58;;;20.50;77.60;;;;;;6193457;22;20019;-91
2023/07/28 10:44:03;;;;;;;1156.63;914.25;;;20.50;77.90;;;;;;6177063;23;20356;-89
2023/07/28 10:46:29;;;;;;;1164.72;921.42;;;20.50;78.00;;;;;;6193658;22;20243;-90
2023/07/28 10:49:08;;;;;;;1036.45;884.70;;;20.50;78.10;;;;;;6218069;22;20019;-91
2023/07/28 10:51:36;;;;;;;1108.65;904.08;;;20.50;75.80;;;;;;6219559;22;20046;-90
2023/07/28 10:54:04;;;;;;;1121.03;924.83;;;20.50;77.10;;;;;;6217481;22;20393;-89
2023/07/28 10:56:30;;;;;;;948.50;819.45;;;20.60;77.20;;;;;;6194498;22;20023;-91
2023/07/28 10:59:01;;;;;;;1080.90;890.65;;;20.60;77.10;;;;;;6130119;23;20831;-89
2023/07/28 11:01:40;;;;;;;1130.93;915.50;;;20.60;76.00;;;;;;6192263;22;20027;-90
2023/07/28 11:07:13;;;;;;;866.85;774.80;;;20.80;75.00;;;;;;6157206;22;20232;-89
2023/07/28 11:09:39;;;;;;;1003.00;860.08;;;20.80;75.70;;;;;;6217288;22;20051;-90
2023/07/28 11:12:10;;;;;;;1019.33;863.47;;;20.90;75.80;;;;;;6193362;22;20584;-90
2023/07/28 11:14:36;;;;;;;1053.20;884.60;;;20.90;75.80;;;;;;6196594;22;20126;-91
2023/07/28 11:17:02;;;;;;;1052.57;888.45;;;20.90;75.80;;;;;;6169738;22;20216;-90
2023/07/28 11:19:28;;;;;;;1125.22;933.78;;;21.00;76.10;;;;;;6188800;22;20023;-89
2023/07/28 11:22:00;;;;;;;1048.15;902.80;;;21.10;76.50;;;;;;6191928;22;20027;-91
2023/07/28 11:24:26;;;;;;;1101.95;890.38;;;21.20;75.70;;;;;;6191162;22;20019;-91
2023/07/28 11:26:52;;;;;;;602.33;550.53;;;21.30;76.40;;;;;;6189932;22;20024;-92
2023/07/28 11:29:21;;;;;;;1104.13;916.53;;;21.30;75.60;;;;;;6190988;22;20024;-89
2023/07/28 11:31:48;;;;;;;1115.40;903.42;;;21.40;75.90;;;;;;6195708;22;20081;-90
2023/07/28 11:34:18;;;;;;;989.75;836.67;;;21.40;76.10;;;;;;6179159;22;20020;-91
2023/07/28 11:37:09;;;;;;;1255.88;955.40;;;21.50;76.00;;;;;;6221854;22;20018;-94
2023/07/28 11:40:21;;;;;;;1145.30;911.53;;;21.50;73.30;;;;;;6196528;22;20015;-93
2023/07/28 11:43:00;;;;;;;1119.60;925.28;;;21.40;74.50;;;;;;6222365;22;20441;-92
2023/07/28 11:45:36;;;;;;;1420.82;973.15;;;21.40;74.00;;;;;;6194547;22;20107;-92
2023/07/28 11:48:06;;;;;;;1511.35;948.92;;;21.40;73.90;;;;;;6176821;22;20032;-89
2023/07/28 11:50:45;;;;;;;1721.32;989.92;;;21.50;74.30;;;;;;6220361;22;20134;-89
2023/07/28 11:53:13;;;;;;;1669.13;965.40;;;21.60;74.50;;;;;;6195527;22;20126;-91
2023/07/28 11:55:42;;;;;;;1609.00;974.58;;;21.70;74.50;;;;;;6171884;22;20012;-90
2023/07/28 11:58:09;;;;;;;1663.30;992.78;;;21.70;74.00;;;;;;6163313;22;20776;-90
2023/07/28 12:00:42;;;;;;;1350.13;912.50;;;21.80;73.70;;;;;;6218808;22;20450;-91
2023/07/28 12:03:10;;;;;;;1104.07;752.08;;;21.90;73.10;;;;;;6194031;22;20045;-89
2023/07/28 12:05:40;;;;;;;706.88;632.50;;;22.00;73.40;;;;;;6195724;22;20454;-91
2023/07/28 12:08:09;;;;;;;708.05;637.58;;;22.10;73.40;;;;;;6204528;22;20031;-92
2023/07/28 12:11:23;;;;;;;1536.40;983.72;;;22.20;73.50;;;;;;6190115;22;20048;-90
2023/07/28 12:14:22;;;;;;;1219.97;902.38;;;22.30;72.20;;;;;;6176613;23;20094;-91
2023/07/28 12:17:27;;;;;;;1280.75;879.58;;;22.10;72.00;;;;;;6194054;22;20024;-94
2023/07/28 12:20:38;;;;;;;;;;;;;;;;;;;;;
2023/07/28 12:23:28;;;;;;;914.88;822.28;;;21.90;71.60;;;;;;6184923;23;20180;-94
2023/07/28 12:25:58;;;;;;;930.65;835.58;;;21.90;69.90;;;;;;6194733;22;20030;-89
2023/07/28 12:28:26;;;;;;;927.63;829.00;;;22.00;72.10;;;;;;6168631;23;20025;-91
2023/07/28 12:30:55;;;;;;;963.22;860.78;;;22.00;71.50;;;;;;6161305;22;20023;-92
2023/07/28 12:33:22;;;;;;;1514.18;887.97;;;22.00;71.40;;;;;;6161492;23;20051;-92
2023/07/28 12:36:09;;;;;;;955.53;854.92;;;22.00;71.50;;;;;;6189668;22;20039;-93
2023/07/28 12:38:35;;;;;;;929.38;831.08;;;22.00;70.50;;;;;;6192111;22;20020;-89
2023/07/28 12:41:01;;;;;;;1475.95;865.97;;;22.00;71.70;;;;;;6212130;22;20101;-90
2023/07/28 12:43:28;;;;;;;1018.90;907.30;;;22.10;71.80;;;;;;6218474;22;20031;-90
2023/07/28 12:45:54;;;;;;;1019.40;903.22;;;22.10;71.30;;;;;;6219015;22;20446;-90
2023/07/28 12:48:26;;;;;;;1014.53;899.55;;;22.20;71.20;;;;;;6191328;22;20023;-92
2023/07/28 12:50:52;;;;;;;1448.63;877.85;;;22.20;69.80;;;;;;6191489;22;20521;-89
2023/07/28 12:53:21;;;;;;;1041.07;922.88;;;22.30;70.70;;;;;;6161268;23;20031;-90
2023/07/28 12:55:50;;;;;;;1062.38;931.10;;;22.30;70.50;;;;;;6188082;22;20012;-90
2023/07/28 12:58:16;;;;;;;1037.88;917.25;;;22.40;70.30;;;;;;6174427;22;20164;-90
2023/07/28 13:00:47;;;;;;;1067.43;914.22;;;22.30;69.90;;;;;;6194174;22;20034;-92
2023/07/28 13:03:13;;;;;;;1016.17;896.47;;;22.30;69.90;;;;;;6181606;22;20030;-89
2023/07/28 13:05:39;;;;;;;1081.03;922.65;;;22.20;70.10;;;;;;6223533;22;20718;-92
2023/07/28 13:08:16;;;;;;;1076.95;901.60;;;22.20;69.90;;;;;;6168492;22;20016;-91
2023/07/28 13:10:51;;;;;;;1030.30;891.90;;;22.20;69.80;;;;;;6192726;22;20130;-93
2023/07/28 13:13:20;;;;;;;1067.45;912.15;;;22.20;69.00;;;;;;6199631;22;20020;-90
2023/07/28 13:15:48;;;;;;;1051.25;900.35;;;22.30;69.60;;;;;;6169585;22;20015;-94
2023/07/28 13:18:14;;;;;;;1087.95;898.92;;;22.50;70.50;;;;;;6190026;22;20049;-91
2023/07/28 13:21:12;;;;;;;1066.90;903.20;;;22.50;69.10;;;;;;6194104;22;20077;-92
2023/07/28 13:23:43;;;;;;;1083.40;901.88;;;22.50;68.50;;;;;;6188863;22;20024;-92
2023/07/28 13:26:12;;;;;;;1174.20;943.83;;;22.50;68.60;;;;;;6193959;22;20027;-90
2023/07/28 13:28:42;;;;;;;1247.95;888.55;;;22.40;69.90;;;;;;6214602;22;20497;-90
2023/07/28 13:31:08;;;;;;;1076.82;900.50;;;22.50;69.60;;;;;;6191179;22;20078;-90
2023/07/28 13:33:34;;;;;;;1159.40;928.50;;;22.40;69.70;;;;;;6190938;22;20847;-89
2023/07/28 13:36:06;;;;;;;1186.95;951.33;;;22.40;69.90;;;;;;6194239;22;20074;-90
2023/07/28 13:38:40;;;;;;;1192.95;956.92;;;22.40;70.00;;;;;;6191700;22;20023;-89
2023/07/28 13:41:06;;;;;;;1192.88;947.65;;;22.30;70.50;;;;;;6190214;22;20126;-90
2023/07/28 13:43:36;;;;;;;1210.55;948.00;;;22.30;70.00;;;;;;6152788;22;20052;-89
2023/07/28 13:46:13;;;;;;;1217.68;948.83;;;22.30;70.50;;;;;;6188071;22;20141;-92
2023/07/28 13:49:05;;;;;;;1138.47;907.30;;;22.30;70.00;;;;;;6192104;22;20137;-92
2023/07/28 13:51:31;;;;;;;1198.50;948.60;;;22.30;68.50;;;;;;6193892;22;20034;-89
2023/07/28 13:53:57;;;;;;;1162.72;935.90;;;22.30;69.90;;;;;;6191074;22;20023;-89
2023/07/28 13:56:32;;;;;;;1228.15;865.53;;;22.40;69.90;;;;;;6220992;22;20012;-93
2023/07/28 13:59:00;;;;;;;1236.40;958.28;;;22.50;68.50;;;;;;6174678;22;20060;-90
2023/07/28 14:01:29;;;;;;;1286.63;972.22;;;22.50;69.10;;;;;;6189557;22;20020;-91
2023/07/28 14:03:55;;;;;;;1215.65;943.47;;;22.50;69.30;;;;;;6152797;23;20055;-89
2023/07/28 14:06:21;;;;;;;1339.40;877.22;;;22.60;69.10;;;;;;6192500;22;20023;-90
2023/07/28 14:08:47;;;;;;;1253.85;943.58;;;22.60;69.10;;;;;;6172025;22;20127;-90
2023/07/28 14:11:13;;;;;;;1217.65;943.15;;;22.60;69.20;;;;;;6188564;22;20024;-89
2023/07/28 14:13:42;;;;;;;1252.55;964.08;;;22.70;68.80;;;;;;6190970;22;20848;-90
2023/07/28 14:16:19;;;;;;;1244.65;955.58;;;22.80;69.50;;;;;;6194736;22;20901;-91
2023/07/28 14:18:47;;;;;;;1214.03;935.55;;;22.90;68.60;;;;;;6176895;22;20019;-90
2023/07/28 14:21:16;;;;;;;1292.88;966.20;;;22.70;68.70;;;;;;6215532;22;20020;-90
2023/07/28 14:23:42;;;;;;;1256.35;945.95;;;22.70;69.00;;;;;;6192036;22;20027;-89
2023/07/28 14:26:08;;;;;;;1283.60;947.47;;;22.70;68.80;;;;;;6219015;22;20020;-88
2023/07/28 14:28:34;;;;;;;1219.57;933.10;;;22.70;68.80;;;;;;6188074;22;20943;-89
2023/07/28 14:31:00;;;;;;;1198.45;922.28;;;22.70;69.20;;;;;;6190778;22;20096;-89
2023/07/28 14:33:29;;;;;;;1275.93;944.92;;;22.80;69.20;;;;;;6191632;22;20020;-90
2023/07/28 14:35:58;;;;;;;1308.10;963.47;;;22.90;68.80;;;;;;6192643;22;20024;-89
2023/07/28 14:38:24;;;;;;;1286.82;955.38;;;22.80;68.90;;;;;;6190649;22;20083;-90
2023/07/28 14:40:51;;;;;;;1125.97;880.72;;;22.80;69.00;;;;;;6214263;22;20011;-90
2023/07/28 14:43:18;;;;;;;1309.95;976.50;;;22.80;69.50;;;;;;6165887;22;20055;-91
2023/07/28 14:45:44;;;;;;;1448.40;913.90;;;22.90;69.50;;;;;;6192977;22;20404;-88
2023/07/28 14:48:12;;;;;;;1257.22;958.22;;;23.00;69.40;;;;;;6212842;22;20123;-89
2023/07/28 14:50:40;;;;;;;1273.90;935.17;;;23.00;69.40;;;;;;6162909;22;20016;-88
2023/07/28 14:53:30;;;;;;;1378.30;979.95;;;22.90;69.50;;;;;;6204672;22;20070;-89
2023/07/28 14:55:58;;;;;;;1316.22;961.70;;;22.90;68.90;;;;;;6195097;22;20020;-89
2023/07/28 14:58:25;;;;;;;1260.82;941.47;;;22.80;69.30;;;;;;6211630;22;20027;-89
2023/07/28 15:00:53;;;;;;;1223.88;872.10;;;22.70;69.80;;;;;;6187280;22;20893;-90
2023/07/28 15:03:19;;;;;;;1341.65;992.70;;;22.60;69.70;;;;;;6216124;22;21013;-89
2023/07/28 15:05:47;;;;;;;1284.47;963.08;;;22.60;70.30;;;;;;6193344;22;20114;-89
2023/07/28 15:08:16;;;;;;;1277.28;955.00;;;22.60;70.70;;;;;;6186508;22;20020;-89
2023/07/28 15:10:42;;;;;;;1274.15;948.00;;;22.60;70.70;;;;;;6163448;22;20027;-88
2023/07/28 15:13:08;;;;;;;1379.15;895.13;;;22.80;70.90;;;;;;6137953;22;20019;-89
2023/07/28 15:15:37;;;;;;;1385.50;985.13;;;22.90;69.80;;;;;;6207415;22;20019;-91
2023/07/28 15:18:03;;;;;;;1327.78;967.28;;;22.90;69.50;;;;;;6189193;22;20012;-89
2023/07/28 15:20:29;;;;;;;1356.45;914.88;;;22.80;69.50;;;;;;6186452;22;20023;-89
2023/07/28 15:22:54;;;;;;;1332.35;969.92;;;23.00;70.10;;;;;;6164648;22;20042;-89
2023/07/28 15:25:20;;;;;;;1310.78;949.33;;;23.10;69.60;;;;;;6210681;22;20015;-88
2023/07/28 15:27:49;;;;;;;1410.88;994.80;;;23.20;68.90;;;;;;6146794;23;20103;-89
2023/07/28 15:30:14;;;;;;;1389.72;985.08;;;23.30;69.20;;;;;;6182797;23;20129;-89
2023/07/28 15:32:43;;;;;;;1320.00;967.95;;;23.40;69.20;;;;;;6146147;23;20510;-90
2023/07/28 15:35:12;;;;;;;1342.43;969.10;;;23.20;68.70;;;;;;6163380;23;20038;-89
2023/07/28 15:37:41;;;;;;;1443.88;902.55;;;23.10;69.40;;;;;;6162034;23;20016;-92
2023/07/28 15:40:19;;;;;;;1243.53;932.85;;;22.90;69.50;;;;;;6158415;23;20047;-91
2023/07/28 15:43:03;;;;;;;1289.65;958.40;;;22.80;70.00;;;;;;6159721;23;20016;-93
2023/07/28 15:45:28;;;;;;;1330.00;970.75;;;22.70;70.00;;;;;;6163369;23;20024;-90
2023/07/28 15:47:54;;;;;;;1462.95;896.45;;;22.60;70.30;;;;;;6182376;23;20030;-90
2023/07/28 15:50:23;;;;;;;1240.60;950.65;;;22.60;70.40;;;;;;6135499;23;20059;-91
2023/07/28 15:52:51;;;;;;;1234.15;929.33;;;22.70;70.70;;;;;;6146432;23;20099;-90
2023/07/28 15:55:50;;;;;;;1328.75;958.55;;;22.80;70.20;;;;;;6183695;23;20023;-92
2023/07/28 15:58:16;;;;;;;1504.22;922.53;;;22.90;68.90;;;;;;6088298;23;20401;-90
2023/07/28 16:00:42;;;;;;;1488.22;912.08;;;22.90;70.20;;;;;;6216661;23;20103;-90
2023/07/28 16:03:08;;;;;;;1272.80;943.45;;;22.70;70.10;;;;;;6189019;23;20023;-90
2023/07/28 16:05:36;;;;;;;1226.28;916.17;;;22.60;70.40;;;;;;6190739;23;20020;-90
2023/07/28 16:08:02;;;;;;;1364.65;988.80;;;22.60;70.60;;;;;;6157714;23;20016;-89
2023/07/28 16:10:28;;;;;;;1446.35;998.20;;;22.50;70.60;;;;;;6216251;23;20020;-90
2023/07/28 16:12:54;;;;;;;1361.10;980.40;;;22.50;70.80;;;;;;6188431;23;20042;-90
2023/07/28 16:15:21;;;;;;;1310.63;952.58;;;22.50;70.90;;;;;;6189770;23;20016;-88
2023/07/28 16:17:47;;;;;;;1598.43;927.63;;;22.40;70.70;;;;;;6184026;23;20086;-89
2023/07/28 16:20:12;;;;;;;1345.60;977.92;;;22.30;71.10;;;;;;6142928;23;20020;-91
2023/07/28 16:22:39;;;;;;;1313.18;969.25;;;22.30;70.90;;;;;;6177348;23;20055;-90
2023/07/28 16:25:05;;;;;;;1310.07;964.63;;;22.20;70.90;;;;;;6167753;23;20469;-90
2023/07/28 16:27:30;;;;;;;1394.20;996.13;;;22.10;71.10;;;;;;6205787;22;20016;-89
2023/07/28 16:29:56;;;;;;;1301.07;965.90;;;22.10;71.40;;;;;;6222600;22;20023;-89
2023/07/28 16:32:22;;;;;;;1306.32;979.15;;;22.10;71.60;;;;;;6222199;22;20020;-89
2023/07/28 16:34:48;;;;;;;1260.80;961.60;;;22.00;71.80;;;;;;6248076;22;20023;-90